Terminal Aerodrome Forecast
Issued by NWS

Home | Current Version | Previous Version | Text Only | Print | Product List | Glossary On
Versions: 1 2 3 4 5 6 7 8 9 10 11 12 13 14 15 16 17 18 19 20 21 22
151
FTUS43 KILX 011130
TAFBMI
TAF
KBMI 011130Z 0112/0212 03008KT P6SM -DZ OVC007
     FM011300 02003KT 5SM -DZ BR BKN006
     FM011600 36007KT 6SM BR VCSH BKN006 OVC012
     FM020000 31005KT P6SM OVC020
     FM020700 32004KT 5SM BR BKN006=

USA.gov is the U.S. government's official web portal to all federal, state and local government web resources and services.